Time;durP1;ratioP1;P1;durP2;ratioP2;P2;SDS_P1;SDS_P2;PMS_P1;PMS_P2;Temp;Humidity;BMP_temperature;BMP_pressure;BME280_temperature;BME280_humidity;BME280_pressure;Samples;Min_cycle;Max_cycle;Signal;HPM_P1;HPM_P2
2021/08/03 00:00:32;;;;;;;;;49.00;40.25;;;;;21.22;59.35;100802.88;5057363;28;48242;-51
2021/08/03 00:02:58;;;;;;;;;47.50;38.75;;;;;21.22;59.64;100802.88;5057739;28;45277;-50
2021/08/03 00:05:27;;;;;;;;;54.25;45.00;;;;;21.23;59.66;100799.22;5057692;28;45760;-51
2021/08/03 00:08:08;;;;;;;;;61.25;49.50;;;;;21.23;59.43;100796.50;5057251;28;46537;-48
2021/08/03 00:10:34;;;;;;;;;18.75;17.00;;;;;21.22;59.74;100795.66;5057414;28;47963;-50
2021/08/03 00:13:01;;;;;;;;;41.75;35.75;;;;;21.22;59.49;100778.59;5048303;28;45607;-48
2021/08/03 00:15:27;;;;;;;;;27.00;26.25;;;;;21.20;59.43;100789.44;5047684;28;45494;-50
2021/08/03 00:17:55;;;;;;;;;19.50;18.50;;;;;21.20;59.30;100789.44;5058461;28;45587;-50
2021/08/03 00:20:23;;;;;;;;;17.75;16.25;;;;;21.20;59.06;100800.25;5044134;28;47453;-52
2021/08/03 00:22:49;;;;;;;;;15.50;15.50;;;;;21.18;59.60;100788.69;5072959;27;45342;-50
2021/08/03 00:25:15;;;;;;;;;11.67;11.67;;;;;21.17;59.56;100793.22;5057573;28;45422;-52
2021/08/03 00:27:42;;;;;;;;;14.00;11.75;;;;;21.19;59.52;100789.56;5057768;28;45742;-48
2021/08/03 00:30:08;;;;;;;;;8.50;8.50;;;;;21.18;59.17;100775.19;5057501;27;47238;-50
2021/08/03 00:32:35;;;;;;;;;32.50;30.00;;;;;21.17;59.38;100771.63;5051881;28;45630;-52
2021/08/03 00:35:01;;;;;;;;;29.75;29.25;;;;;21.17;59.50;100763.53;5049548;28;45399;-51
2021/08/03 00:37:26;;;;;;;;;26.00;21.25;;;;;21.19;58.94;100766.13;5039005;28;45639;-51
2021/08/03 00:39:52;;;;;;;;;9.50;9.25;;;;;21.19;59.32;100771.53;5049988;28;45565;-53
2021/08/03 00:42:17;;;;;;;;;14.00;10.25;;;;;21.19;59.14;100770.66;5051214;28;45640;-52
2021/08/03 00:44:51;;;;;;;;;7.25;7.00;;;;;21.20;59.07;100769.69;5090258;27;45606;-50
2021/08/03 00:47:19;;;;;;;;;7.00;7.00;;;;;21.21;59.59;100766.88;5058118;28;45677;-49
2021/08/03 00:49:45;;;;;;;;;7.33;7.33;;;;;21.22;59.39;100754.28;5040053;28;46152;-49
2021/08/03 00:52:14;;;;;;;;;7.00;7.00;;;;;21.23;59.12;100759.59;5037460;28;45377;-51
2021/08/03 00:54:40;;;;;;;;;4.33;4.33;;;;;21.22;59.62;100755.16;5037258;28;45854;-49
2021/08/03 00:57:08;;;;;;;;;6.00;5.33;;;;;21.20;59.67;100743.56;5048045;28;45581;-52
2021/08/03 00:59:34;;;;;;;;;7.25;5.75;;;;;21.21;59.81;100748.00;5055914;28;46988;-51
2021/08/03 01:02:02;;;;;;;;;10.00;9.00;;;;;21.21;59.35;100753.41;5054749;28;45554;-49
2021/08/03 01:04:27;;;;;;;;;5.50;5.50;;;;;21.22;60.06;100754.28;5056997;28;45838;-50
2021/08/03 01:07:04;;;;;;;;;6.25;6.25;;;;;21.23;59.85;100756.88;5050464;28;45291;-50
2021/08/03 01:09:51;;;;;;;;;7.75;7.75;;;;;21.24;60.00;100753.22;5055928;28;47228;-51
2021/08/03 01:12:20;;;;;;;;;7.67;7.33;;;;;21.23;59.59;100748.78;5056937;28;45441;-51
2021/08/03 01:14:54;;;;;;;;;6.50;6.50;;;;;21.21;59.47;100750.69;5057076;28;45302;-49
2021/08/03 01:17:52;;;;;;;;;6.00;6.00;;;;;21.20;60.10;100746.28;5057666;27;45570;-49
2021/08/03 01:20:27;;;;;;;;;6.00;5.33;;;;;21.20;59.65;100745.41;5058254;28;47372;-49
2021/08/03 01:23:04;;;;;;;;;6.33;6.33;;;;;21.19;59.41;100744.53;5050296;28;45714;-52
2021/08/03 01:25:45;;;;;;;;;7.00;7.00;;;;;21.19;60.33;100743.66;5048380;28;45493;-50
2021/08/03 01:28:16;;;;;;;;;10.00;10.00;;;;;21.21;59.50;100736.34;5060710;28;45379;-51
2021/08/03 01:30:50;;;;;;;;;7.00;6.67;;;;;21.20;60.08;100731.91;5059693;28;47285;-52
2021/08/03 01:33:22;;;;;;;;;5.75;5.50;;;;;21.21;60.49;100736.34;5060013;27;45421;-52
2021/08/03 01:35:49;;;;;;;;;6.25;6.25;;;;;21.23;60.23;100723.63;5060402;27;45414;-49
2021/08/03 01:38:18;;;;;;;;;7.00;6.00;;;;;21.24;60.00;100726.22;5059091;28;45496;-53
2021/08/03 01:40:46;;;;;;;;;7.00;7.00;;;;;21.25;60.04;100721.69;5056520;27;47263;-49
2021/08/03 01:43:12;;;;;;;;;6.25;6.25;;;;;21.25;59.88;100721.69;5060196;28;45499;-51
2021/08/03 01:45:38;;;;;;;;;6.00;6.00;;;;;21.26;60.06;100720.75;5059892;28;45610;-51
2021/08/03 01:48:07;;;;;;;;;8.25;8.25;;;;;21.25;60.08;100722.59;5059955;28;45340;-49
2021/08/03 01:50:33;;;;;;;;;6.00;6.00;;;;;21.26;60.40;100709.97;5059782;28;47657;-52
2021/08/03 01:53:02;;;;;;;;;9.00;8.50;;;;;21.27;59.98;100715.25;5057998;27;45343;-52
2021/08/03 01:55:29;;;;;;;;;8.00;8.00;;;;;21.29;60.07;100716.00;5060336;28;45483;-52
2021/08/03 01:57:56;;;;;;;;;8.00;8.00;;;;;21.27;59.81;100714.41;5053475;28;45460;-51
2021/08/03 02:00:21;;;;;;;;;8.50;7.75;;;;;21.26;59.79;100707.25;5039765;28;47380;-51
2021/08/03 02:02:47;;;;;;;;;11.67;10.00;;;;;21.25;59.99;100716.31;5058056;28;45436;-47
2021/08/03 02:05:15;;;;;;;;;9.25;8.75;;;;;21.25;60.31;100713.59;5060146;28;45439;-51
2021/08/03 02:07:42;;;;;;;;;7.25;7.25;;;;;21.25;59.95;100719.00;5059786;28;45354;-51
2021/08/03 02:10:08;;;;;;;;;9.75;9.00;;;;;21.26;59.93;100727.03;5059951;28;47534;-50
2021/08/03 02:12:35;;;;;;;;;8.33;8.33;;;;;21.25;60.70;100728.00;5059715;28;45605;-52
2021/08/03 02:15:04;;;;;;;;;12.25;11.00;;;;;21.24;60.70;100728.94;5053576;27;45825;-54
2021/08/03 02:17:29;;;;;;;;;8.75;7.75;;;;;21.25;60.37;100732.50;5075243;28;45388;-52
2021/08/03 02:19:55;;;;;;;;;10.00;9.00;;;;;21.22;60.43;100727.31;5058900;28;47626;-49
2021/08/03 02:22:21;;;;;;;;;8.00;8.00;;;;;21.21;60.37;100723.72;5059491;28;45313;-50
2021/08/03 02:24:46;;;;;;;;;7.00;7.00;;;;;21.21;60.11;100726.41;5075137;28;45372;-48
2021/08/03 02:27:12;;;;;;;;;11.33;11.33;;;;;21.21;60.17;100728.25;5059884;27;45811;-50
2021/08/03 02:29:42;;;;;;;;;8.67;8.67;;;;;21.23;60.48;100729.03;5059619;28;47154;-49
2021/08/03 02:32:16;;;;;;;;;11.00;9.00;;;;;21.23;60.74;100729.03;5058061;28;46341;-50
2021/08/03 02:34:45;;;;;;;;;10.67;9.67;;;;;21.21;60.67;100729.09;5059496;28;45394;-51
2021/08/03 02:37:16;;;;;;;;;11.67;11.67;;;;;21.22;60.67;100727.31;5060030;28;45294;-52
2021/08/03 02:39:43;;;;;;;;;10.33;10.33;;;;;21.21;60.41;100721.00;5058261;28;48421;-48
2021/08/03 02:42:10;;;;;;;;;10.00;8.00;;;;;21.19;60.52;100722.09;5055279;27;45479;-52
2021/08/03 02:44:38;;;;;;;;;9.00;9.00;;;;;21.14;59.85;100720.56;5059174;28;45306;-51
2021/08/03 02:47:18;;;;;;;;;8.33;8.33;;;;;21.10;60.22;100716.34;5056165;28;45518;-48
2021/08/03 02:49:50;;;;;;;;;8.33;8.33;;;;;21.11;60.41;100720.78;5047342;28;47890;-52
2021/08/03 02:52:17;;;;;;;;;9.00;7.67;;;;;21.15;61.03;100719.59;5059520;28;45968;-53
2021/08/03 02:54:48;;;;;;;;;8.67;8.67;;;;;21.17;60.85;100712.25;5057651;28;45513;-51
2021/08/03 02:57:16;;;;;;;;;9.00;7.33;;;;;21.20;61.19;100711.19;5052205;28;45924;-47
2021/08/03 02:59:47;;;;;;;;;8.33;8.33;;;;;21.21;61.09;100718.31;5057275;28;45532;-52
2021/08/03 03:02:15;;;;;;;;;8.67;8.67;;;;;21.22;61.57;100709.28;5052425;27;45707;-53
2021/08/03 03:05:00;;;;;;;;;9.00;9.00;;;;;21.24;61.39;100709.16;5053186;28;45495;-53
2021/08/03 03:07:31;;;;;;;;;11.33;11.33;;;;;21.24;61.02;100704.63;5058805;28;45368;-51
2021/08/03 03:09:58;;;;;;;;;11.00;11.00;;;;;21.25;60.97;100711.78;5058453;28;46521;-51
2021/08/03 03:12:28;;;;;;;;;12.00;12.00;;;;;21.27;60.99;100706.28;5058724;28;45928;-52
2021/08/03 03:14:57;;;;;;;;;10.00;10.00;;;;;21.23;60.99;100707.44;5058732;28;45319;-53
2021/08/03 03:17:26;;;;;;;;;12.00;11.33;;;;;21.21;61.40;100703.94;5058572;28;45500;-51
2021/08/03 03:19:56;;;;;;;;;13.33;13.33;;;;;21.22;61.91;100713.81;5058389;27;47037;-53
2021/08/03 03:22:23;;;;;;;;;10.00;9.33;;;;;21.23;61.85;100712.84;5045972;28;45418;-53
2021/08/03 03:24:49;;;;;;;;;11.67;10.33;;;;;21.22;62.25;100695.78;5058170;28;45300;-52
2021/08/03 03:27:17;;;;;;;;;13.00;12.33;;;;;21.24;61.61;100690.28;5058422;28;45504;-53
2021/08/03 03:29:44;;;;;;;;;14.33;14.33;;;;;21.23;61.97;100691.25;5058532;28;48413;-53
2021/08/03 03:32:09;;;;;;;;;12.67;12.00;;;;;21.23;62.16;100694.81;5054282;28;45348;-51
2021/08/03 03:34:39;;;;;;;;;11.33;10.00;;;;;21.22;61.85;100694.91;5068031;27;45397;-51
2021/08/03 03:37:04;;;;;;;;;14.67;14.33;;;;;21.22;62.10;100689.53;5069273;27;45335;-54
2021/08/03 03:39:34;;;;;;;;;15.67;15.67;;;;;21.21;62.00;100685.06;5045170;28;47398;-52
2021/08/03 03:42:04;;;;;;;;;11.67;11.67;;;;;21.19;61.42;100689.69;5069401;27;45502;-50
2021/08/03 03:44:31;;;;;;;;;14.00;13.00;;;;;21.17;61.91;100697.91;5070969;28;45958;-50
2021/08/03 03:47:01;;;;;;;;;14.00;12.00;;;;;21.15;61.69;100698.00;5061394;28;45559;-50
2021/08/03 03:49:35;;;;;;;;;12.00;12.00;;;;;21.12;62.11;100698.22;5071152;28;48006;-50
2021/08/03 03:52:02;;;;;;;;;10.00;10.00;;;;;21.07;61.63;100702.16;5069352;27;45299;-50
2021/08/03 03:54:30;;;;;;;;;13.67;13.00;;;;;20.99;61.57;100702.69;5065184;27;45377;-50
2021/08/03 03:56:59;;;;;;;;;8.33;8.33;;;;;20.90;61.56;100702.41;5069320;28;45494;-50
2021/08/03 03:59:24;;;;;;;;;13.33;10.33;;;;;20.86;61.50;100708.00;5075842;28;47316;-49
2021/08/03 04:01:52;;;;;;;;;18.00;15.25;;;;;20.86;61.58;100707.16;5069226;27;45718;-46
2021/08/03 04:04:19;;;;;;;;;10.00;9.33;;;;;20.84;61.47;100704.53;5076922;27;45536;-50
2021/08/03 04:06:45;;;;;;;;;12.67;10.33;;;;;20.79;61.54;100708.50;5075926;27;45627;-48
2021/08/03 04:09:21;;;;;;;;;11.33;10.00;;;;;20.80;62.07;100710.22;5074458;27;47323;-47
2021/08/03 04:11:47;;;;;;;;;11.00;10.00;;;;;20.76;62.17;100714.94;5075271;27;45381;-50
2021/08/03 04:14:22;;;;;;;;;8.00;8.00;;;;;20.76;61.90;100711.38;5068940;28;45689;-52
2021/08/03 04:16:49;;;;;;;;;9.67;9.67;;;;;20.73;62.14;100714.28;5077233;27;45535;-50
2021/08/03 04:19:14;;;;;;;;;9.00;6.67;;;;;20.69;61.55;100719.00;5064921;27;47280;-51
2021/08/03 04:21:40;;;;;;;;;7.00;7.00;;;;;20.70;61.72;100725.25;5076795;27;45300;-47
2021/08/03 04:24:05;;;;;;;;;7.00;7.00;;;;;20.71;61.81;100726.97;5076011;27;45257;-49
2021/08/03 04:26:32;;;;;;;;;8.00;7.00;;;;;20.71;62.06;100725.19;5076895;28;45588;-50
2021/08/03 04:28:57;;;;;;;;;6.33;6.33;;;;;20.72;61.40;100718.81;5055517;27;47333;-48
2021/08/03 04:31:23;;;;;;;;;9.00;6.00;;;;;20.69;61.25;100713.59;5059301;28;45954;-50
2021/08/03 04:33:50;;;;;;;;;6.67;6.67;;;;;20.65;60.75;100716.59;5057813;28;45328;-49
2021/08/03 04:36:16;;;;;;;;;8.00;6.67;;;;;20.64;61.84;100714.88;5058200;28;45642;-52
2021/08/03 04:38:42;;;;;;;;;6.00;5.00;;;;;20.62;61.33;100716.81;5057031;28;47893;-49
2021/08/03 04:41:07;;;;;;;;;5.33;5.33;;;;;20.59;61.62;100714.31;5057334;28;45406;-50
2021/08/03 04:43:33;;;;;;;;;5.33;5.33;;;;;20.57;61.32;100712.53;5057389;28;45776;-51
2021/08/03 04:45:58;;;;;;;;;6.67;6.67;;;;;20.58;62.03;100713.41;5055168;27;45485;-46
2021/08/03 04:48:24;;;;;;;;;6.00;6.00;;;;;20.60;62.05;100713.34;5080570;27;47815;-51
2021/08/03 04:50:49;;;;;;;;;7.67;7.67;;;;;20.61;62.06;100706.97;5056156;28;45352;-50
2021/08/03 04:53:15;;;;;;;;;8.00;8.00;;;;;20.62;61.67;100700.63;5057412;28;45483;-52
2021/08/03 04:55:40;;;;;;;;;8.00;8.00;;;;;20.62;62.02;100706.88;5068196;27;45327;-52
2021/08/03 04:58:06;;;;;;;;;6.00;6.00;;;;;20.64;61.84;100701.38;5054563;28;46275;-50
2021/08/03 05:00:31;;;;;;;;;9.00;7.00;;;;;20.63;61.98;100697.81;5057329;28;45791;-48
2021/08/03 05:02:57;;;;;;;;;9.00;9.00;;;;;20.64;62.26;100698.69;5057064;28;45377;-49
2021/08/03 05:05:24;;;;;;;;;7.00;6.67;;;;;20.62;62.26;100688.00;5060918;28;45425;-51
2021/08/03 05:07:58;;;;;;;;;8.00;7.00;;;;;20.63;61.84;100683.47;5052385;27;47262;-49
2021/08/03 05:10:24;;;;;;;;;8.00;8.00;;;;;20.60;61.82;100687.25;5040412;28;45761;-48
2021/08/03 05:12:50;;;;;;;;;8.67;6.67;;;;;20.59;62.19;100687.34;5040318;28;45353;-48
2021/08/03 05:15:16;;;;;;;;;8.33;6.67;;;;;20.55;62.16;100692.03;5040525;28;45440;-47
2021/08/03 05:17:41;;;;;;;;;8.00;7.50;;;;;20.52;62.01;100686.84;5072796;28;47359;-50
2021/08/03 05:20:07;;;;;;;;;5.00;5.00;;;;;20.50;62.35;100692.34;5042229;28;46513;-48
2021/08/03 05:22:33;;;;;;;;;7.00;7.00;;;;;20.53;62.41;100696.66;5060647;27;45366;-47
2021/08/03 05:24:59;;;;;;;;;7.33;7.33;;;;;20.53;62.10;100694.84;5060324;28;45378;-49
2021/08/03 05:27:24;;;;;;;;;12.75;11.50;;;;;20.54;62.65;100699.25;5060092;28;47230;-49
2021/08/03 05:29:50;;;;;;;;;4.00;4.00;;;;;20.59;62.25;100706.22;5060079;27;45398;-53
2021/08/03 05:32:15;;;;;;;;;8.75;8.75;;;;;20.63;62.60;100697.81;5055614;28;45487;-53
2021/08/03 05:34:41;;;;;;;;;9.50;7.25;;;;;20.65;62.46;100703.97;5074239;27;45479;-51
2021/08/03 05:37:07;;;;;;;;;8.00;6.33;;;;;20.67;62.30;100702.03;5057180;28;47513;-52
2021/08/03 05:39:33;;;;;;;;;6.67;6.67;;;;;20.68;62.50;100706.47;5054497;28;45291;-52
2021/08/03 05:41:59;;;;;;;;;7.67;7.67;;;;;20.70;61.94;100704.53;5041636;28;45435;-53
2021/08/03 05:44:25;;;;;;;;;7.00;7.00;;;;;20.69;62.03;100710.91;5056115;28;45440;-51
2021/08/03 05:46:50;;;;;;;;;6.00;6.00;;;;;20.69;61.96;100702.81;5049852;28;48670;-50
2021/08/03 05:49:15;;;;;;;;;8.67;7.67;;;;;20.73;62.32;100708.91;5060180;28;45696;-50
2021/08/03 05:51:41;;;;;;;;;10.33;7.67;;;;;20.73;62.61;100714.28;5060369;28;45271;-52
2021/08/03 05:54:06;;;;;;;;;8.50;7.00;;;;;20.75;62.13;100707.81;5056687;27;45643;-53
2021/08/03 05:56:32;;;;;;;;;5.33;5.00;;;;;20.78;62.46;100706.75;5058357;28;45981;-51
2021/08/03 05:58:57;;;;;;;;;6.00;6.00;;;;;20.81;62.01;100710.13;5039942;28;45321;-51
2021/08/03 06:01:23;;;;;;;;;5.00;5.00;;;;;20.79;61.47;100708.50;5040446;28;45430;-51
2021/08/03 06:03:48;;;;;;;;;5.67;5.67;;;;;20.79;62.19;100717.44;5060250;28;45441;-52
2021/08/03 06:06:15;;;;;;;;;6.00;5.33;;;;;20.81;61.82;100723.59;5059036;28;47438;-47
2021/08/03 06:08:42;;;;;;;;;5.00;5.00;;;;;20.83;61.60;100729.78;5059998;28;45338;-49
2021/08/03 06:11:15;;;;;;;;;6.33;6.33;;;;;20.82;61.13;100722.63;5057240;28;45710;-53
2021/08/03 06:13:45;;;;;;;;;4.33;4.33;;;;;20.79;61.30;100725.53;5059450;28;45671;-51
2021/08/03 06:16:15;;;;;;;;;5.00;5.00;;;;;20.76;61.64;100727.56;5058822;28;47265;-51
2021/08/03 06:18:44;;;;;;;;;4.33;4.33;;;;;20.75;61.35;100726.72;5059332;28;45476;-52
2021/08/03 06:21:12;;;;;;;;;7.00;5.00;;;;;20.78;61.61;100723.81;5058591;28;45564;-55
2021/08/03 06:23:38;;;;;;;;;7.00;5.00;;;;;20.81;61.20;100723.59;5052782;28;45366;-52
2021/08/03 06:26:04;;;;;;;;;6.67;6.00;;;;;20.85;61.21;100727.00;5059885;28;47916;-51
2021/08/03 06:28:30;;;;;;;;;5.00;5.00;;;;;20.89;61.55;100725.81;5054493;28;45405;-51
2021/08/03 06:30:57;;;;;;;;;5.00;5.00;;;;;20.92;61.46;100730.16;5051204;27;45441;-51
2021/08/03 06:33:23;;;;;;;;;5.00;4.67;;;;;20.96;61.77;100737.06;5059745;28;45232;-50
2021/08/03 06:35:50;;;;;;;;;5.33;5.33;;;;;20.97;61.48;100739.69;5054862;28;47991;-51
2021/08/03 06:38:16;;;;;;;;;6.00;6.00;;;;;21.01;61.07;100738.53;5058550;28;45443;-51
2021/08/03 06:41:08;;;;;;;;;5.00;4.67;;;;;21.05;60.86;100728.38;5058226;28;45669;-48
2021/08/03 06:43:44;;;;;;;;;8.00;6.00;;;;;21.08;60.85;100733.56;5048789;28;45493;-52
2021/08/03 06:46:11;;;;;;;;;3.00;3.00;;;;;21.10;60.88;100737.94;5054371;28;47407;-48
2021/08/03 06:48:54;;;;;;;;;4.33;4.00;;;;;21.14;60.13;100744.84;5059487;28;45361;-52
2021/08/03 06:51:20;;;;;;;;;7.00;5.33;;;;;21.19;60.54;100740.97;5059635;28;45434;-51
2021/08/03 06:53:47;;;;;;;;;5.33;4.00;;;;;21.24;60.20;100749.66;5059745;28;45446;-52
2021/08/03 06:56:21;;;;;;;;;5.67;4.00;;;;;21.26;59.60;100745.91;5059222;28;47132;-50
2021/08/03 06:59:03;;;;;;;;;4.00;4.00;;;;;21.28;59.06;100743.13;5058464;28;45359;-51
2021/08/03 07:01:51;;;;;;;;;5.67;3.67;;;;;21.27;59.28;100755.75;5055932;28;45791;-52
2021/08/03 07:04:28;;;;;;;;;6.33;3.00;;;;;21.29;59.13;100753.81;5057139;28;45924;-52
2021/08/03 07:06:58;;;;;;;;;3.67;3.67;;;;;21.31;59.45;100753.69;5070195;28;45868;-51
2021/08/03 07:09:25;;;;;;;;;2.67;2.67;;;;;21.33;58.14;100759.84;5057942;28;45359;-53
2021/08/03 07:11:55;;;;;;;;;3.00;3.00;;;;;21.33;58.38;100759.84;5059832;28;45510;-52
2021/08/03 07:14:24;;;;;;;;;4.00;4.00;;;;;21.29;58.05;100756.50;5059574;28;45494;-52
2021/08/03 07:16:53;;;;;;;;;4.67;3.67;;;;;21.26;58.36;100767.50;5058778;28;47500;-49
2021/08/03 07:19:21;;;;;;;;;3.00;3.00;;;;;21.27;58.49;100761.13;5054254;28;45450;-52
2021/08/03 07:21:48;;;;;;;;;2.33;2.33;;;;;21.29;58.42;100761.91;5059163;28;45389;-48
2021/08/03 07:24:13;;;;;;;;;5.00;5.00;;;;;21.30;59.00;100757.38;5052391;28;45517;-53
2021/08/03 07:26:39;;;;;;;;;4.00;4.00;;;;;21.30;58.66;100762.75;5056842;28;46325;-49
2021/08/03 07:29:05;;;;;;;;;5.67;5.00;;;;;21.32;59.32;100768.94;5058624;28;45800;-53
2021/08/03 07:31:31;;;;;;;;;10.33;8.33;;;;;21.31;59.16;100759.09;5056319;28;45869;-49
2021/08/03 07:33:57;;;;;;;;;8.33;6.00;;;;;21.31;59.44;100761.81;5058790;28;45632;-50
2021/08/03 07:36:23;;;;;;;;;5.33;5.33;;;;;21.33;58.74;100770.66;5056951;28;45503;-53
2021/08/03 07:38:54;;;;;;;;;3.67;2.67;;;;;21.37;59.31;100783.00;5078870;27;45399;-52
2021/08/03 07:41:20;;;;;;;;;3.00;3.00;;;;;21.41;59.25;100777.28;5051282;28;45465;-51
2021/08/03 07:43:46;;;;;;;;;3.00;3.00;;;;;21.49;58.70;100781.34;5071462;27;45425;-52
2021/08/03 07:46:12;;;;;;;;;4.00;4.00;;;;;21.59;58.77;100775.19;5043411;28;47407;-51
2021/08/03 07:48:38;;;;;;;;;5.00;4.00;;;;;21.74;58.84;100776.03;5045325;28;46610;-50
2021/08/03 07:51:05;;;;;;;;;6.00;6.00;;;;;21.86;58.45;100774.34;5058732;28;45533;-51
2021/08/03 07:53:31;;;;;;;;;3.00;2.00;;;;;21.95;58.00;100774.56;5053818;28;45449;-51
2021/08/03 07:55:56;;;;;;;;;7.00;7.00;;;;;22.03;57.55;100779.47;5058378;28;47190;-51
2021/08/03 07:58:22;;;;;;;;;8.67;8.00;;;;;22.09;56.91;100767.38;5058407;28;45279;-49
2021/08/03 08:00:47;;;;;;;;;7.33;5.67;;;;;22.05;56.33;100766.69;5054582;28;45326;-51
2021/08/03 08:03:13;;;;;;;;;4.67;4.67;;;;;22.04;56.53;100770.38;5057546;28;45935;-51
2021/08/03 08:05:38;;;;;;;;;3.00;3.00;;;;;22.02;56.76;100766.91;5058408;28;46905;-50
2021/08/03 08:08:05;;;;;;;;;5.00;4.00;;;;;21.96;56.43;100767.31;5058051;28;45727;-53
2021/08/03 08:10:31;;;;;;;;;4.67;3.00;;;;;21.88;56.72;100767.88;5082050;27;45592;-52
2021/08/03 08:12:56;;;;;;;;;4.00;3.00;;;;;21.79;56.22;100770.31;5057090;28;45448;-52
2021/08/03 08:15:22;;;;;;;;;2.00;2.00;;;;;21.71;56.32;100768.97;5055667;28;48318;-51
2021/08/03 08:17:47;;;;;;;;;3.67;3.67;;;;;21.68;57.07;100769.19;5051662;28;45423;-50
2021/08/03 08:20:13;;;;;;;;;2.00;2.00;;;;;21.72;56.38;100773.44;5058258;28;45508;-52
2021/08/03 08:22:41;;;;;;;;;4.00;2.00;;;;;21.83;55.88;100761.03;5058000;28;45417;-51
2021/08/03 08:25:10;;;;;;;;;3.33;3.33;;;;;21.97;56.13;100756.41;5058022;28;47256;-52
2021/08/03 08:27:40;;;;;;;;;3.00;3.00;;;;;22.08;55.37;100746.72;5053914;28;45440;-53
2021/08/03 08:30:07;;;;;;;;;3.00;3.00;;;;;22.17;55.82;100751.50;5053986;27;45488;-51
2021/08/03 08:32:33;;;;;;;;;4.00;4.00;;;;;22.21;55.40;100753.00;5054612;28;45259;-51
2021/08/03 08:34:59;;;;;;;;;4.00;4.00;;;;;22.25;55.22;100746.44;5060947;27;48116;-50
2021/08/03 08:37:25;;;;;;;;;5.00;4.00;;;;;22.30;55.38;100750.53;5092858;27;45463;-52
2021/08/03 08:39:50;;;;;;;;;4.33;3.67;;;;;22.35;55.07;100750.22;5054097;28;45741;-52
2021/08/03 08:42:17;;;;;;;;;4.00;4.00;;;;;22.37;54.39;100753.69;5094489;27;45396;-52
2021/08/03 08:44:48;;;;;;;;;2.33;2.33;;;;;22.35;53.74;100758.31;5058021;28;48364;-52
2021/08/03 08:47:17;;;;;;;;;2.00;2.00;;;;;22.35;53.91;100762.88;5066831;28;45433;-52
2021/08/03 08:49:44;;;;;;;;;2.00;2.00;;;;;22.35;53.41;100755.63;5061213;28;45364;-50
2021/08/03 08:52:13;;;;;;;;;4.00;4.00;;;;;22.33;53.76;100760.28;5061762;28;45415;-50
2021/08/03 08:54:38;;;;;;;;;3.00;3.00;;;;;22.26;53.32;100757.16;5089588;27;45873;-51
2021/08/03 08:57:04;;;;;;;;;4.00;4.00;;;;;22.17;53.21;100755.06;5052216;28;45491;-52
2021/08/03 08:59:31;;;;;;;;;3.00;3.00;;;;;22.10;53.33;100748.34;5078691;27;45407;-52
2021/08/03 09:01:57;;;;;;;;;3.00;3.00;;;;;22.08;53.96;100755.69;5062987;27;45458;-49
2021/08/03 09:04:26;;;;;;;;;4.00;3.33;;;;;22.15;53.23;100762.44;5065710;27;47181;-52
2021/08/03 09:07:05;;;;;;;;;2.33;2.33;;;;;22.22;53.59;100760.16;5063007;27;45376;-53
2021/08/03 09:09:42;;;;;;;;;5.00;4.00;;;;;22.26;53.40;100759.84;5063823;27;45474;-53
2021/08/03 09:12:09;;;;;;;;;5.00;5.00;;;;;22.26;52.92;100759.00;5064171;27;45627;-51
2021/08/03 09:14:40;;;;;;;;;5.67;4.67;;;;;22.25;52.77;100754.56;5062881;27;46421;-52
2021/08/03 09:17:07;;;;;;;;;4.00;4.00;;;;;22.24;53.57;100750.13;5065182;28;45423;-53
2021/08/03 09:19:41;;;;;;;;;4.00;4.00;;;;;22.27;53.53;100752.59;5057132;27;45391;-52
2021/08/03 09:22:12;;;;;;;;;3.00;3.00;;;;;22.36;52.64;100754.69;5063344;28;45758;-49
2021/08/03 09:24:39;;;;;;;;;4.67;4.67;;;;;22.42;53.34;100762.34;5063151;28;45357;-52
2021/08/03 09:27:05;;;;;;;;;5.00;4.00;;;;;22.51;52.73;100755.44;5065211;28;45361;-51
2021/08/03 09:29:45;;;;;;;;;4.00;4.00;;;;;22.52;52.28;100760.72;5063147;28;45456;-54
2021/08/03 09:32:12;;;;;;;;;4.00;4.00;;;;;22.47;52.00;100753.88;5059557;28;45234;-53
2021/08/03 09:34:37;;;;;;;;;4.67;3.67;;;;;22.46;52.28;100754.88;5063234;28;48588;-50
2021/08/03 09:37:03;;;;;;;;;4.00;3.00;;;;;22.45;52.39;100761.25;5066831;27;45453;-51
2021/08/03 09:39:59;;;;;;;;;3.33;3.33;;;;;22.44;52.10;100763.09;5063501;27;45432;-52
2021/08/03 09:42:24;;;;;;;;;4.67;4.67;;;;;22.46;52.01;100766.53;5043734;28;45272;-53
2021/08/03 09:45:00;;;;;;;;;7.33;7.33;;;;;22.52;51.80;100765.28;5061271;27;46563;-52
2021/08/03 09:47:29;;;;;;;;;7.00;7.00;;;;;22.58;52.18;100762.97;5059204;28;45443;-52
2021/08/03 09:50:06;;;;;;;;;6.00;6.00;;;;;22.61;51.75;100762.78;5056677;28;45707;-48
2021/08/03 09:52:35;;;;;;;;;5.00;5.00;;;;;22.67;51.91;100752.50;5066077;27;45428;-51
2021/08/03 09:55:17;;;;;;;;;2.00;2.00;;;;;22.75;51.56;100760.94;5077635;27;48258;-53
2021/08/03 09:57:45;;;;;;;;;3.67;2.67;;;;;22.80;51.40;100754.19;5064673;28;45389;-49
2021/08/03 10:00:26;;;;;;;;;5.00;5.00;;;;;22.82;51.13;100746.84;5074752;27;45444;-51
2021/08/03 10:02:53;;;;;;;;;2.00;2.00;;;;;22.86;51.27;100750.19;5072864;28;45555;-52
2021/08/03 10:05:20;;;;;;;;;6.00;6.00;;;;;22.85;51.20;100749.34;5071852;27;48121;-53
2021/08/03 10:07:46;;;;;;;;;4.00;4.00;;;;;22.88;50.70;100759.09;5068045;28;45914;-52
2021/08/03 10:10:13;;;;;;;;;5.67;3.00;;;;;22.90;51.00;100749.03;5055309;28;45368;-50
2021/08/03 10:12:39;;;;;;;;;3.00;2.00;;;;;22.92;49.96;100751.63;5074774;28;45567;-50
2021/08/03 10:15:08;;;;;;;;;2.00;2.00;;;;;22.93;49.93;100745.22;5062666;27;45979;-52
2021/08/03 10:17:34;;;;;;;;;4.00;4.00;;;;;22.90;50.86;100747.19;5075782;28;45315;-51
2021/08/03 10:20:00;;;;;;;;;4.00;4.00;;;;;22.91;51.16;100750.75;5069819;28;45622;-52
2021/08/03 10:22:28;;;;;;;;;4.00;4.00;;;;;22.92;50.87;100754.31;5076395;27;45380;-53
2021/08/03 10:25:06;;;;;;;;;4.33;3.33;;;;;22.93;50.95;100758.75;5071176;27;48230;-52
2021/08/03 10:27:51;;;;;;;;;6.00;6.00;;;;;22.93;51.26;100754.22;5061627;27;45532;-53
2021/08/03 10:30:28;;;;;;;;;5.33;5.33;;;;;22.95;51.18;100756.81;5067649;28;46172;-51
2021/08/03 10:32:57;;;;;;;;;5.33;5.33;;;;;22.98;50.93;100762.84;5059241;28;45322;-51
2021/08/03 10:35:48;;;;;;;;;5.50;5.50;;;;;23.04;50.54;100748.03;5059645;27;47199;-51
2021/08/03 10:38:15;;;;;;;;;6.00;6.00;;;;;;;;5058147;28;45692;-53
2021/08/03 10:40:44;;;;;;;;;3.50;3.50;;;;;23.17;50.53;100735.31;5056968;28;45404;-54
2021/08/03 10:43:16;;;;;;;;;5.00;5.00;;;;;23.25;50.63;100734.72;5043250;28;45480;-54
2021/08/03 10:45:42;;;;;;;;;4.00;4.00;;;;;23.29;50.39;100736.25;5063742;28;48337;-50
2021/08/03 10:48:08;;;;;;;;;4.33;4.33;;;;;23.31;50.31;100737.84;5058917;28;45456;-51
2021/08/03 10:50:34;;;;;;;;;6.75;6.25;;;;;23.34;50.21;100744.88;5058973;28;45384;-53
2021/08/03 10:53:03;;;;;;;;;5.00;4.25;;;;;23.34;50.12;100742.19;5059807;27;45456;-54
2021/08/03 10:55:36;;;;;;;;;3.50;3.50;;;;;23.32;49.94;100738.72;5070806;28;45357;-52
2021/08/03 10:58:11;;;;;;;;;5.00;5.00;;;;;23.32;49.86;100733.31;5058040;28;45534;-52
2021/08/03 11:01:01;;;;;;;;;4.67;4.67;;;;;23.39;49.68;100740.00;5056583;28;45570;-54
2021/08/03 11:03:36;;;;;;;;;7.25;7.25;;;;;23.47;49.98;100751.13;5058693;28;45465;-54
2021/08/03 11:06:10;;;;;;;;;6.50;5.75;;;;;23.56;49.14;100746.84;5059277;28;47337;-53
2021/08/03 11:08:43;;;;;;;;;4.00;4.00;;;;;23.60;48.83;100745.66;5058953;28;45510;-51
2021/08/03 11:11:28;;;;;;;;;7.00;6.25;;;;;23.59;48.46;100744.81;5059617;28;45607;-52
2021/08/03 11:14:06;;;;;;;;;5.00;5.00;;;;;23.57;48.34;100749.44;5062169;27;45424;-53
2021/08/03 11:16:31;;;;;;;;;6.50;5.00;;;;;23.56;48.48;100739.59;5059633;28;45402;-49
2021/08/03 11:18:59;;;;;;;;;4.00;4.00;;;;;23.56;48.22;100745.00;5053778;28;45459;-54
2021/08/03 11:21:30;;;;;;;;;5.00;5.00;;;;;23.58;48.06;100750.34;5061716;28;45796;-53
2021/08/03 11:24:06;;;;;;;;;3.00;3.00;;;;;23.58;48.32;100750.34;5082981;27;45682;-53
2021/08/03 11:26:54;;;;;;;;;4.00;4.00;;;;;23.58;48.15;100756.63;5063101;28;46870;-52
2021/08/03 11:29:22;;;;;;;;;4.67;4.67;;;;;23.58;48.27;100753.06;5065544;27;45467;-52